Super Servant 4 — PJPO — position and weather

sailwx.info

Track history (hours):
 
Tides and Currents Weather Stations Pressure Air Temp Water Temp Dewpoint Dewpoint Depression Visibility Wind Speed Wind Dir Waves Ship Positions

Super Servant 4

Last reported at 2016-Jun-19 00:26 UTC. Time now 2016-Jun-24 20:28 UTC.
Position N 34°18' W 024°25'.

Length 139 m; beam 32 m.

Type: Cargo ship. MMSI: 306157000.

Date/timePositionNaut miles runAvg speedWind from/ knotsBaromVisibWave heightAir tempDewpointWater temp
2016-Jun-19 00:26N 34°18' W 024°25'1111.6
2016-Jun-18 23:29N 34°20' W 024°12'  
2016-Jun-15 14:33N 35°58' W 005°32'9 8.5
2016-Jun-15 13:33N 36°01' W 005°22'8 8.3
2016-Jun-15 12:33N 36°02' W 005°12'14510.3
2016-Jun-14 22:33N 36°25' W 002°15'1111.2
2016-Jun-14 21:33N 36°27' W 002°01'1611.3
2016-Jun-14 20:08N 36°30' W 001°41'2811.0
2016-Jun-14 17:33N 36°34' W 001°06'1510.4
2016-Jun-14 16:08N 36°36' W 000°48'610.8
2016-Jun-14 15:33N 36°37' W 000°40'2411.9
2016-Jun-14 13:32N 36°40' W 000°11'1412.9
2016-Jun-14 12:28N 36°42' E 000°06'2412.6
2016-Jun-14 10:33N 36°46' E 000°36'1211.1
2016-Jun-14 09:31N 36°47' E 000°50'1111.2
2016-Jun-14 08:31N 36°49' E 001°04'1211.1
2016-Jun-14 07:27N 36°51' E 001°18'1010.9
2016-Jun-14 06:33N 36°52' E 001°31'8111.5
2016-Jun-13 23:32N 37°04' E 003°11'1211.9
2016-Jun-13 22:32N 37°06' E 003°26'3611.9
2016-Jun-13 19:31N 37°11' E 004°10'3511.5
2016-Jun-13 16:30N 37°16' E 004°53'1211.6
2016-Jun-13 15:30N 37°17' E 005°08'2411.4
2016-Jun-13 13:22N 37°21' E 005°38'1012.1
2016-Jun-13 12:33N 37°23' E 005°50'21011.5
2016-Jun-12 18:23N 37°39' E 010°14'9411.6
2016-Jun-12 10:15N 37°04' E 012°04'812.1
2016-Jun-12 09:33N 36°60' E 012°13'1212.0
2016-Jun-12 08:33N 36°54' E 012°26'1211.7
2016-Jun-12 07:33N 36°51' E 012°40'1212.4
2016-Jun-12 06:33N 36°48' E 012°55'2411.8
2016-Jun-12 04:33N 36°42' E 013°24'1212.0
2016-Jun-12 03:33N 36°40' E 013°39'1212.3
2016-Jun-12 02:33N 36°38' E 013°54'1212.1
2016-Jun-12 01:33N 36°35' E 014°09'1212.0
2016-Jun-12 00:33N 36°32' E 014°23'1212.0
2016-Jun-11 23:33N 36°29' E 014°37'1211.9
2016-Jun-11 22:33N 36°26' E 014°52'1312.2
2016-Jun-11 21:30N 36°26' E 015°08'1111.4
2016-Jun-11 20:33N 36°35' E 015°15'1212.0
2016-Jun-11 19:33N 36°45' E 015°21'3612.0
2016-Jun-11 16:33N 37°16' E 015°45'1211.7
2016-Jun-11 15:33N 37°24' E 015°55'1211.4
2016-Jun-11 14:29N 37°34' E 016°05'37 0.7
2016-Jun-09 11:05N 37°59' E 016°39'1910.1
2016-Jun-09 09:09N 37°43' E 016°24'1010.4
2016-Jun-09 08:13N 37°35' E 016°18'812.1
2016-Jun-09 07:32N 37°28' E 016°12'1212.2
2016-Jun-09 06:33N 37°19' E 016°03'2713.3
2016-Jun-09 04:33N 36°57' E 015°44'1313.1
2016-Jun-09 03:33N 36°46' E 015°34'1212.3
2016-Jun-09 02:33N 36°36' E 015°26'1611.8
2016-Jun-09 01:14N 36°25' E 015°12'912.9
2016-Jun-09 00:33N 36°26' E 015°01'  
Track history (hours):
 
Tides and Currents Weather Stations Pressure Air Temp Water Temp Dewpoint Dewpoint Depression Visibility Wind Speed Wind Dir Waves Ship Positions

Super Servant 4

Last reported at 2016-Jun-19 00:26 UTC. Time now 2016-Jun-24 20:28 UTC.
Position N 34°18' W 024°25'.

Length 139 m; beam 32 m.

Type: Cargo ship. MMSI: 306157000.

Date/timePositionNaut miles runAvg speedWind from/ knotsBaromVisibWave heightAir tempDewpointWater temp
2016-Jun-19 00:26N 34°18' W 024°25'1111.6
2016-Jun-18 23:29N 34°20' W 024°12'  
2016-Jun-15 14:33N 35°58' W 005°32'9 8.5
2016-Jun-15 13:33N 36°01' W 005°22'8 8.3
2016-Jun-15 12:33N 36°02' W 005°12'14510.3
2016-Jun-14 22:33N 36°25' W 002°15'1111.2
2016-Jun-14 21:33N 36°27' W 002°01'1611.3
2016-Jun-14 20:08N 36°30' W 001°41'2811.0
2016-Jun-14 17:33N 36°34' W 001°06'1510.4
2016-Jun-14 16:08N 36°36' W 000°48'610.8
2016-Jun-14 15:33N 36°37' W 000°40'2411.9
2016-Jun-14 13:32N 36°40' W 000°11'1412.9
2016-Jun-14 12:28N 36°42' E 000°06'2412.6
2016-Jun-14 10:33N 36°46' E 000°36'1211.1
2016-Jun-14 09:31N 36°47' E 000°50'1111.2
2016-Jun-14 08:31N 36°49' E 001°04'1211.1
2016-Jun-14 07:27N 36°51' E 001°18'1010.9
2016-Jun-14 06:33N 36°52' E 001°31'8111.5
2016-Jun-13 23:32N 37°04' E 003°11'1211.9
2016-Jun-13 22:32N 37°06' E 003°26'3611.9
2016-Jun-13 19:31N 37°11' E 004°10'3511.5
2016-Jun-13 16:30N 37°16' E 004°53'1211.6
2016-Jun-13 15:30N 37°17' E 005°08'2411.4
2016-Jun-13 13:22N 37°21' E 005°38'1012.1
2016-Jun-13 12:33N 37°23' E 005°50'21011.5
2016-Jun-12 18:23N 37°39' E 010°14'9411.6
2016-Jun-12 10:15N 37°04' E 012°04'812.1
2016-Jun-12 09:33N 36°60' E 012°13'1212.0
2016-Jun-12 08:33N 36°54' E 012°26'1211.7
2016-Jun-12 07:33N 36°51' E 012°40'1212.4
2016-Jun-12 06:33N 36°48' E 012°55'2411.8
2016-Jun-12 04:33N 36°42' E 013°24'1212.0
2016-Jun-12 03:33N 36°40' E 013°39'1212.3
2016-Jun-12 02:33N 36°38' E 013°54'1212.1
2016-Jun-12 01:33N 36°35' E 014°09'1212.0
2016-Jun-12 00:33N 36°32' E 014°23'1212.0
2016-Jun-11 23:33N 36°29' E 014°37'1211.9
2016-Jun-11 22:33N 36°26' E 014°52'1312.2
2016-Jun-11 21:30N 36°26' E 015°08'1111.4
2016-Jun-11 20:33N 36°35' E 015°15'1212.0
2016-Jun-11 19:33N 36°45' E 015°21'3612.0
2016-Jun-11 16:33N 37°16' E 015°45'1211.7
2016-Jun-11 15:33N 37°24' E 015°55'1211.4
2016-Jun-11 14:29N 37°34' E 016°05'37 0.7
2016-Jun-09 11:05N 37°59' E 016°39'1910.1
2016-Jun-09 09:09N 37°43' E 016°24'1010.4
2016-Jun-09 08:13N 37°35' E 016°18'812.1
2016-Jun-09 07:32N 37°28' E 016°12'1212.2
2016-Jun-09 06:33N 37°19' E 016°03'2713.3
2016-Jun-09 04:33N 36°57' E 015°44'1313.1
2016-Jun-09 03:33N 36°46' E 015°34'1212.3
2016-Jun-09 02:33N 36°36' E 015°26'1611.8
2016-Jun-09 01:14N 36°25' E 015°12'912.9
2016-Jun-09 00:33N 36°26' E 015°01'  

Dump ship's entire track history